sensor_id;sensor_type;location;lat;lon;timestamp;pressure;altitude;pressure_sealevel;temperature;humidity
47366;BME280;33105;47.964;7.982;2023-02-05T00:00:49;98656.66;;;0.00;100.00
47366;BME280;33105;47.964;7.982;2023-02-05T00:03:50;98657.78;;;-0.03;100.00
47366;BME280;33105;47.964;7.982;2023-02-05T00:06:51;98662.69;;;0.02;100.00
47366;BME280;33105;47.964;7.982;2023-02-05T00:09:53;98654.31;;;0.15;100.00
47366;BME280;33105;47.964;7.982;2023-02-05T00:12:54;98649.78;;;0.15;100.00
47366;BME280;33105;47.964;7.982;2023-02-05T00:15:55;98654.19;;;0.07;100.00
47366;BME280;33105;47.964;7.982;2023-02-05T00:18:56;98645.00;;;0.09;100.00
47366;BME280;33105;47.964;7.982;2023-02-05T00:21:57;98645.69;;;0.11;100.00
47366;BME280;33105;47.964;7.982;2023-02-05T00:24:58;98651.91;;;0.12;100.00
47366;BME280;33105;47.964;7.982;2023-02-05T00:27:59;98654.03;;;0.08;100.00
47366;BME280;33105;47.964;7.982;2023-02-05T00:31:06;98655.63;;;0.01;100.00
47366;BME280;33105;47.964;7.982;2023-02-05T00:34:08;98658.16;;;0.03;100.00
47366;BME280;33105;47.964;7.982;2023-02-05T00:37:09;98656.41;;;-0.07;100.00
47366;BME280;33105;47.964;7.982;2023-02-05T00:40:10;98656.69;;;-0.10;100.00
47366;BME280;33105;47.964;7.982;2023-02-05T00:43:12;98651.31;;;-0.10;100.00
47366;BME280;33105;47.964;7.982;2023-02-05T00:46:13;98651.47;;;-0.11;100.00
47366;BME280;33105;47.964;7.982;2023-02-05T00:49:14;98652.19;;;-0.19;100.00
47366;BME280;33105;47.964;7.982;2023-02-05T00:52:15;98657.00;;;-0.22;100.00
47366;BME280;33105;47.964;7.982;2023-02-05T00:55:17;98651.19;;;-0.18;100.00
47366;BME280;33105;47.964;7.982;2023-02-05T00:58:18;98653.03;;;-0.18;100.00
47366;BME280;33105;47.964;7.982;2023-02-05T01:01:20;98648.44;;;-0.26;100.00
47366;BME280;33105;47.964;7.982;2023-02-05T01:04:21;98653.47;;;-0.23;100.00
47366;BME280;33105;47.964;7.982;2023-02-05T01:07:22;98654.72;;;-0.17;100.00
47366;BME280;33105;47.964;7.982;2023-02-05T01:10:24;98655.16;;;-0.22;100.00
47366;BME280;33105;47.964;7.982;2023-02-05T01:13:25;98655.31;;;-0.23;100.00
47366;BME280;33105;47.964;7.982;2023-02-05T01:16:26;98662.38;;;-0.22;100.00
47366;BME280;33105;47.964;7.982;2023-02-05T01:19:28;98664.22;;;-0.23;100.00
47366;BME280;33105;47.964;7.982;2023-02-05T01:22:29;98659.47;;;-0.29;100.00
47366;BME280;33105;47.964;7.982;2023-02-05T01:25:30;98661.44;;;-0.31;100.00
47366;BME280;33105;47.964;7.982;2023-02-05T01:28:31;98661.75;;;-0.34;100.00
47366;BME280;33105;47.964;7.982;2023-02-05T01:31:32;98658.91;;;-0.32;100.00
47366;BME280;33105;47.964;7.982;2023-02-05T01:34:34;98657.34;;;-0.35;100.00
47366;BME280;33105;47.964;7.982;2023-02-05T01:37:35;98661.75;;;-0.34;100.00
47366;BME280;33105;47.964;7.982;2023-02-05T01:40:36;98658.19;;;-0.35;100.00
47366;BME280;33105;47.964;7.982;2023-02-05T01:43:37;98644.91;;;-0.36;100.00
47366;BME280;33105;47.964;7.982;2023-02-05T01:46:41;98644.22;;;-0.38;100.00
47366;BME280;33105;47.964;7.982;2023-02-05T01:49:42;98646.19;;;-0.40;100.00
47366;BME280;33105;47.964;7.982;2023-02-05T01:52:44;98645.78;;;-0.45;100.00
47366;BME280;33105;47.964;7.982;2023-02-05T01:55:51;98633.50;;;-0.48;100.00
47366;BME280;33105;47.964;7.982;2023-02-05T01:59:06;98635.19;;;-0.47;100.00
47366;BME280;33105;47.964;7.982;2023-02-05T02:02:09;98628.75;;;-0.54;100.00
47366;BME280;33105;47.964;7.982;2023-02-05T02:05:12;98628.59;;;-0.52;100.00
47366;BME280;33105;47.964;7.982;2023-02-05T02:08:14;98619.72;;;-0.62;100.00
47366;BME280;33105;47.964;7.982;2023-02-05T02:11:16;98620.72;;;-0.63;100.00
47366;BME280;33105;47.964;7.982;2023-02-05T02:14:22;98614.22;;;-0.61;100.00
47366;BME280;33105;47.964;7.982;2023-02-05T02:17:25;98609.28;;;-0.65;100.00
47366;BME280;33105;47.964;7.982;2023-02-05T02:20:32;98604.19;;;-0.69;100.00
47366;BME280;33105;47.964;7.982;2023-02-05T02:24:02;98608.28;;;-0.64;100.00
47366;BME280;33105;47.964;7.982;2023-02-05T02:27:35;98611.81;;;-0.64;100.00
47366;BME280;33105;47.964;7.982;2023-02-05T02:30:49;98613.34;;;-0.61;100.00
47366;BME280;33105;47.964;7.982;2023-02-05T02:34:25;98597.00;;;-0.68;100.00
47366;BME280;33105;47.964;7.982;2023-02-05T02:37:51;98589.22;;;-0.71;100.00
47366;BME280;33105;47.964;7.982;2023-02-05T02:41:02;98588.38;;;-0.72;100.00
47366;BME280;33105;47.964;7.982;2023-02-05T02:44:10;98587.28;;;-0.79;100.00
47366;BME280;33105;47.964;7.982;2023-02-05T02:47:16;98581.50;;;-0.84;100.00
47366;BME280;33105;47.964;7.982;2023-02-05T02:50:23;98582.22;;;-0.82;100.00
47366;BME280;33105;47.964;7.982;2023-02-05T02:53:32;98582.47;;;-0.75;100.00
47366;BME280;33105;47.964;7.982;2023-02-05T02:56:36;98587.53;;;-0.72;100.00
47366;BME280;33105;47.964;7.982;2023-02-05T02:59:39;98585.25;;;-0.67;100.00
47366;BME280;33105;47.964;7.982;2023-02-05T03:02:42;98577.25;;;-0.77;100.00
47366;BME280;33105;47.964;7.982;2023-02-05T03:05:47;98576.00;;;-0.82;100.00
47366;BME280;33105;47.964;7.982;2023-02-05T03:11:59;98571.19;;;-0.79;100.00
47366;BME280;33105;47.964;7.982;2023-02-05T03:15:01;98578.81;;;-0.84;100.00
47366;BME280;33105;47.964;7.982;2023-02-05T03:18:03;98577.56;;;-0.80;100.00
47366;BME280;33105;47.964;7.982;2023-02-05T03:21:08;98566.13;;;-0.82;100.00
47366;BME280;33105;47.964;7.982;2023-02-05T03:24:12;98555.09;;;-0.79;100.00
47366;BME280;33105;47.964;7.982;2023-02-05T03:27:13;98547.03;;;-0.79;100.00
47366;BME280;33105;47.964;7.982;2023-02-05T03:30:15;98548.63;;;-0.86;100.00
47366;BME280;33105;47.964;7.982;2023-02-05T03:33:29;98547.06;;;-0.88;100.00
47366;BME280;33105;47.964;7.982;2023-02-05T03:36:54;98563.44;;;-0.82;100.00
47366;BME280;33105;47.964;7.982;2023-02-05T03:46:56;98558.50;;;-0.96;100.00
47366;BME280;33105;47.964;7.982;2023-02-05T03:50:30;98554.56;;;-0.92;100.00
47366;BME280;33105;47.964;7.982;2023-02-05T03:53:54;98546.56;;;-1.01;100.00
47366;BME280;33105;47.964;7.982;2023-02-05T04:00:16;98536.25;;;-1.06;100.00
47366;BME280;33105;47.964;7.982;2023-02-05T04:03:20;98526.53;;;-1.07;100.00
47366;BME280;33105;47.964;7.982;2023-02-05T04:06:21;98524.97;;;-1.10;100.00
47366;BME280;33105;47.964;7.982;2023-02-05T04:09:25;98522.41;;;-1.01;100.00
47366;BME280;33105;47.964;7.982;2023-02-05T04:12:26;98526.94;;;-1.02;100.00
47366;BME280;33105;47.964;7.982;2023-02-05T04:15:28;98537.66;;;-1.02;100.00
47366;BME280;33105;47.964;7.982;2023-02-05T04:18:31;98545.28;;;-1.07;100.00
47366;BME280;33105;47.964;7.982;2023-02-05T04:21:33;98560.81;;;-1.01;100.00
47366;BME280;33105;47.964;7.982;2023-02-05T04:24:35;98548.78;;;-0.97;100.00
47366;BME280;33105;47.964;7.982;2023-02-05T04:27:36;98546.00;;;-1.15;100.00
47366;BME280;33105;47.964;7.982;2023-02-05T04:30:39;98538.53;;;-1.21;100.00
47366;BME280;33105;47.964;7.982;2023-02-05T04:33:42;98534.66;;;-0.99;100.00
47366;BME280;33105;47.964;7.982;2023-02-05T04:36:46;98537.66;;;-1.02;100.00
47366;BME280;33105;47.964;7.982;2023-02-05T04:39:47;98539.34;;;-1.01;100.00
47366;BME280;33105;47.964;7.982;2023-02-05T04:42:48;98559.84;;;-1.10;100.00
47366;BME280;33105;47.964;7.982;2023-02-05T04:45:49;98557.44;;;-1.03;100.00
47366;BME280;33105;47.964;7.982;2023-02-05T04:48:51;98563.19;;;-0.98;100.00
47366;BME280;33105;47.964;7.982;2023-02-05T04:51:52;98555.84;;;-0.96;100.00
47366;BME280;33105;47.964;7.982;2023-02-05T04:54:53;98555.44;;;-1.01;100.00
47366;BME280;33105;47.964;7.982;2023-02-05T04:57:54;98552.44;;;-0.98;100.00
47366;BME280;33105;47.964;7.982;2023-02-05T05:00:55;98540.03;;;-0.99;100.00
47366;BME280;33105;47.964;7.982;2023-02-05T05:03:57;98540.22;;;-1.10;100.00
47366;BME280;33105;47.964;7.982;2023-02-05T05:06:58;98534.16;;;-1.12;100.00
47366;BME280;33105;47.964;7.982;2023-02-05T05:09:59;98546.94;;;-0.96;100.00
47366;BME280;33105;47.964;7.982;2023-02-05T05:13:00;98547.22;;;-0.90;100.00
47366;BME280;33105;47.964;7.982;2023-02-05T05:16:03;98541.38;;;-0.76;100.00
47366;BME280;33105;47.964;7.982;2023-02-05T05:19:04;98549.38;;;-0.66;100.00
47366;BME280;33105;47.964;7.982;2023-02-05T05:22:05;98553.19;;;-0.69;99.22
47366;BME280;33105;47.964;7.982;2023-02-05T05:25:07;98570.53;;;-0.53;100.00
47366;BME280;33105;47.964;7.982;2023-02-05T05:28:08;98569.00;;;-0.56;99.44
47366;BME280;33105;47.964;7.982;2023-02-05T05:31:13;98564.72;;;-0.86;99.19
47366;BME280;33105;47.964;7.982;2023-02-05T05:34:16;98572.50;;;-0.55;100.00
47366;BME280;33105;47.964;7.982;2023-02-05T05:37:17;98561.38;;;-0.60;99.76
47366;BME280;33105;47.964;7.982;2023-02-05T05:40:18;98565.16;;;-0.53;100.00
47366;BME280;33105;47.964;7.982;2023-02-05T05:43:38;98556.13;;;-0.52;98.83
47366;BME280;33105;47.964;7.982;2023-02-05T05:46:48;98547.28;;;-0.45;97.00
47366;BME280;33105;47.964;7.982;2023-02-05T05:49:49;98534.94;;;-0.28;95.34
47366;BME280;33105;47.964;7.982;2023-02-05T05:52:51;98537.00;;;-0.22;98.14
47366;BME280;33105;47.964;7.982;2023-02-05T05:55:52;98540.09;;;-0.17;98.87
47366;BME280;33105;47.964;7.982;2023-02-05T05:58:53;98554.22;;;-0.15;99.46
47366;BME280;33105;47.964;7.982;2023-02-05T06:01:55;98559.72;;;-0.16;99.15
47366;BME280;33105;47.964;7.982;2023-02-05T06:04:56;98560.97;;;-0.11;98.85
47366;BME280;33105;47.964;7.982;2023-02-05T06:07:57;98557.47;;;-0.21;98.31
47366;BME280;33105;47.964;7.982;2023-02-05T06:10:59;98557.81;;;-0.51;98.44
47366;BME280;33105;47.964;7.982;2023-02-05T06:14:00;98565.34;;;-0.37;100.00
47366;BME280;33105;47.964;7.982;2023-02-05T06:17:01;98564.78;;;-0.31;100.00
47366;BME280;33105;47.964;7.982;2023-02-05T06:20:04;98559.41;;;-0.31;100.00
47366;BME280;33105;47.964;7.982;2023-02-05T06:23:05;98562.50;;;-0.26;100.00
47366;BME280;33105;47.964;7.982;2023-02-05T06:26:06;98555.09;;;-0.24;100.00
47366;BME280;33105;47.964;7.982;2023-02-05T06:29:07;98541.28;;;-0.29;100.00
47366;BME280;33105;47.964;7.982;2023-02-05T06:32:09;98537.31;;;-0.25;100.00
47366;BME280;33105;47.964;7.982;2023-02-05T06:35:10;98542.75;;;-0.17;100.00
47366;BME280;33105;47.964;7.982;2023-02-05T06:38:11;98545.31;;;-0.15;100.00
47366;BME280;33105;47.964;7.982;2023-02-05T06:41:12;98555.06;;;-0.14;100.00
47366;BME280;33105;47.964;7.982;2023-02-05T06:44:13;98558.72;;;-0.15;100.00
47366;BME280;33105;47.964;7.982;2023-02-05T06:47:14;98566.66;;;-0.14;100.00
47366;BME280;33105;47.964;7.982;2023-02-05T06:50:16;98562.25;;;-0.15;100.00
47366;BME280;33105;47.964;7.982;2023-02-05T06:53:17;98566.78;;;-0.15;100.00
47366;BME280;33105;47.964;7.982;2023-02-05T06:56:18;98577.25;;;-0.12;100.00
47366;BME280;33105;47.964;7.982;2023-02-05T06:59:20;98588.97;;;-0.13;100.00
47366;BME280;33105;47.964;7.982;2023-02-05T07:02:21;98592.91;;;-0.08;100.00
47366;BME280;33105;47.964;7.982;2023-02-05T07:05:22;98591.78;;;-0.05;100.00
47366;BME280;33105;47.964;7.982;2023-02-05T07:08:23;98591.91;;;-0.07;100.00
47366;BME280;33105;47.964;7.982;2023-02-05T07:11:24;98603.06;;;-0.02;100.00
47366;BME280;33105;47.964;7.982;2023-02-05T07:14:26;98603.91;;;-0.01;100.00
47366;BME280;33105;47.964;7.982;2023-02-05T07:17:27;98590.84;;;0.04;100.00
47366;BME280;33105;47.964;7.982;2023-02-05T07:20:28;98596.63;;;-0.18;99.03
47366;BME280;33105;47.964;7.982;2023-02-05T07:23:29;98611.13;;;-0.02;100.00
47366;BME280;33105;47.964;7.982;2023-02-05T07:26:31;98611.19;;;0.07;100.00
47366;BME280;33105;47.964;7.982;2023-02-05T07:29:32;98597.88;;;0.15;99.26
47366;BME280;33105;47.964;7.982;2023-02-05T07:32:33;98603.94;;;0.17;98.89
47366;BME280;33105;47.964;7.982;2023-02-05T07:35:36;98597.03;;;0.32;98.30
47366;BME280;33105;47.964;7.982;2023-02-05T07:38:38;98595.44;;;0.39;97.28
47366;BME280;33105;47.964;7.982;2023-02-05T07:41:39;98605.94;;;0.50;96.58
47366;BME280;33105;47.964;7.982;2023-02-05T07:44:40;98595.56;;;0.55;96.96
47366;BME280;33105;47.964;7.982;2023-02-05T07:47:42;98607.78;;;0.50;97.53
47366;BME280;33105;47.964;7.982;2023-02-05T07:50:43;98612.94;;;0.43;96.95
47366;BME280;33105;47.964;7.982;2023-02-05T07:53:45;98604.88;;;0.61;96.31
47366;BME280;33105;47.964;7.982;2023-02-05T07:56:46;98595.13;;;0.60;96.35
47366;BME280;33105;47.964;7.982;2023-02-05T07:59:47;98605.41;;;0.64;97.07
47366;BME280;33105;47.964;7.982;2023-02-05T08:02:48;98611.34;;;0.68;97.55
47366;BME280;33105;47.964;7.982;2023-02-05T08:05:50;98592.13;;;0.63;94.93
47366;BME280;33105;47.964;7.982;2023-02-05T08:08:51;98594.06;;;0.71;95.68
47366;BME280;33105;47.964;7.982;2023-02-05T08:11:52;98576.84;;;0.63;95.11
47366;BME280;33105;47.964;7.982;2023-02-05T08:14:54;98557.44;;;0.78;93.13
47366;BME280;33105;47.964;7.982;2023-02-05T08:17:55;98559.97;;;0.79;96.64
47366;BME280;33105;47.964;7.982;2023-02-05T08:20:57;98549.22;;;0.79;96.23
47366;BME280;33105;47.964;7.982;2023-02-05T08:23:59;98562.72;;;0.87;94.41
47366;BME280;33105;47.964;7.982;2023-02-05T08:27:01;98576.44;;;1.02;97.38
47366;BME280;33105;47.964;7.982;2023-02-05T08:30:07;98586.59;;;1.08;97.48
47366;BME280;33105;47.964;7.982;2023-02-05T08:33:09;98581.53;;;1.05;97.74
47366;BME280;33105;47.964;7.982;2023-02-05T08:36:25;98583.53;;;1.03;98.01
47366;BME280;33105;47.964;7.982;2023-02-05T08:39:27;98589.91;;;1.02;98.81
47366;BME280;33105;47.964;7.982;2023-02-05T08:42:28;98592.59;;;1.02;98.95
47366;BME280;33105;47.964;7.982;2023-02-05T08:45:30;98586.56;;;0.82;96.31
47366;BME280;33105;47.964;7.982;2023-02-05T08:48:40;98587.34;;;0.92;98.16
47366;BME280;33105;47.964;7.982;2023-02-05T08:51:45;98583.97;;;1.16;99.21
47366;BME280;33105;47.964;7.982;2023-02-05T08:58:11;98568.50;;;0.92;95.48
47366;BME280;33105;47.964;7.982;2023-02-05T09:01:14;98579.84;;;1.04;97.63
47366;BME280;33105;47.964;7.982;2023-02-05T09:04:19;98571.72;;;1.22;98.11
47366;BME280;33105;47.964;7.982;2023-02-05T09:07:20;98561.16;;;1.28;97.87
47366;BME280;33105;47.964;7.982;2023-02-05T09:10:22;98550.38;;;1.28;98.12
47366;BME280;33105;47.964;7.982;2023-02-05T09:13:23;98548.84;;;1.26;97.21
47366;BME280;33105;47.964;7.982;2023-02-05T09:16:26;98543.50;;;1.34;97.44
47366;BME280;33105;47.964;7.982;2023-02-05T09:19:28;98543.72;;;1.41;97.48
47366;BME280;33105;47.964;7.982;2023-02-05T09:22:31;98534.00;;;1.48;96.75
47366;BME280;33105;47.964;7.982;2023-02-05T09:25:32;98531.66;;;1.53;98.21
47366;BME280;33105;47.964;7.982;2023-02-05T09:28:35;98528.84;;;1.62;98.63
47366;BME280;33105;47.964;7.982;2023-02-05T09:31:36;98531.75;;;1.69;98.39
47366;BME280;33105;47.964;7.982;2023-02-05T09:34:40;98544.88;;;1.72;98.20
47366;BME280;33105;47.964;7.982;2023-02-05T09:37:50;98538.81;;;1.70;98.14
47366;BME280;33105;47.964;7.982;2023-02-05T09:44:23;98533.75;;;1.67;97.90
47366;BME280;33105;47.964;7.982;2023-02-05T09:47:41;98544.22;;;1.78;99.03
47366;BME280;33105;47.964;7.982;2023-02-05T09:50:46;98540.19;;;1.82;97.99
47366;BME280;33105;47.964;7.982;2023-02-05T09:53:52;98533.47;;;1.86;98.07
47366;BME280;33105;47.964;7.982;2023-02-05T09:57:10;98539.72;;;1.87;98.61
47366;BME280;33105;47.964;7.982;2023-02-05T10:00:19;98531.63;;;1.87;98.68
47366;BME280;33105;47.964;7.982;2023-02-05T10:03:28;98521.97;;;1.68;96.57
47366;BME280;33105;47.964;7.982;2023-02-05T10:06:37;98508.69;;;1.83;98.43
47366;BME280;33105;47.964;7.982;2023-02-05T10:16:29;98506.22;;;2.05;97.76
47366;BME280;33105;47.964;7.982;2023-02-05T10:26:14;98510.31;;;2.18;98.30
47366;BME280;33105;47.964;7.982;2023-02-05T10:32:56;98509.13;;;2.20;98.80
47366;BME280;33105;47.964;7.982;2023-02-05T10:36:00;98514.53;;;2.20;98.76
47366;BME280;33105;47.964;7.982;2023-02-05T10:39:12;98513.00;;;2.26;99.46
47366;BME280;33105;47.964;7.982;2023-02-05T10:42:34;98525.47;;;2.27;99.61
47366;BME280;33105;47.964;7.982;2023-02-05T10:45:38;98521.09;;;2.26;98.88
47366;BME280;33105;47.964;7.982;2023-02-05T10:48:44;98523.63;;;2.27;97.67
47366;BME280;33105;47.964;7.982;2023-02-05T10:51:49;98521.78;;;2.36;98.86
47366;BME280;33105;47.964;7.982;2023-02-05T10:54:50;98515.38;;;2.37;98.79
47366;BME280;33105;47.964;7.982;2023-02-05T10:57:52;98493.44;;;2.24;97.47
47366;BME280;33105;47.964;7.982;2023-02-05T11:00:54;98488.75;;;2.18;97.41
47366;BME280;33105;47.964;7.982;2023-02-05T11:04:02;98482.66;;;2.16;97.39
47366;BME280;33105;47.964;7.982;2023-02-05T11:07:12;98480.97;;;2.07;98.40
47366;BME280;33105;47.964;7.982;2023-02-05T11:10:25;98468.19;;;2.33;99.41
47366;BME280;33105;47.964;7.982;2023-02-05T11:13:27;98456.72;;;2.39;99.00
47366;BME280;33105;47.964;7.982;2023-02-05T11:16:36;98467.16;;;2.34;98.80
47366;BME280;33105;47.964;7.982;2023-02-05T11:19:38;98449.97;;;2.35;98.64
47366;BME280;33105;47.964;7.982;2023-02-05T11:22:40;98436.16;;;2.38;99.15
47366;BME280;33105;47.964;7.982;2023-02-05T11:26:06;98446.94;;;2.30;98.66
47366;BME280;33105;47.964;7.982;2023-02-05T11:29:18;98436.16;;;2.30;99.02
47366;BME280;33105;47.964;7.982;2023-02-05T11:32:33;98431.75;;;2.29;99.20
47366;BME280;33105;47.964;7.982;2023-02-05T11:35:36;98424.88;;;2.18;99.00
47366;BME280;33105;47.964;7.982;2023-02-05T11:38:44;98420.63;;;2.24;98.90
47366;BME280;33105;47.964;7.982;2023-02-05T11:41:46;98417.28;;;2.30;98.88
47366;BME280;33105;47.964;7.982;2023-02-05T11:44:52;98415.25;;;2.32;97.94
47366;BME280;33105;47.964;7.982;2023-02-05T11:48:19;98403.97;;;2.45;97.79
47366;BME280;33105;47.964;7.982;2023-02-05T11:51:39;98402.63;;;2.41;98.27
47366;BME280;33105;47.964;7.982;2023-02-05T11:54:44;98395.69;;;2.38;98.58
47366;BME280;33105;47.964;7.982;2023-02-05T11:57:57;98406.16;;;2.33;98.90
47366;BME280;33105;47.964;7.982;2023-02-05T12:01:20;98401.44;;;2.27;98.39
47366;BME280;33105;47.964;7.982;2023-02-05T12:04:25;98404.66;;;2.14;98.78
47366;BME280;33105;47.964;7.982;2023-02-05T12:07:30;98404.28;;;2.25;99.31
47366;BME280;33105;47.964;7.982;2023-02-05T12:14:18;98395.22;;;2.10;100.00
47366;BME280;33105;47.964;7.982;2023-02-05T12:21:04;98379.53;;;2.14;99.79
47366;BME280;33105;47.964;7.982;2023-02-05T12:27:32;98381.22;;;2.07;99.93
47366;BME280;33105;47.964;7.982;2023-02-05T12:30:57;98375.84;;;2.15;99.76
47366;BME280;33105;47.964;7.982;2023-02-05T12:37:40;98364.38;;;2.13;99.73
47366;BME280;33105;47.964;7.982;2023-02-05T12:44:16;98364.34;;;2.29;99.40
47366;BME280;33105;47.964;7.982;2023-02-05T12:58:00;98344.84;;;2.19;99.77
47366;BME280;33105;47.964;7.982;2023-02-05T13:01:09;98340.63;;;2.16;99.26
47366;BME280;33105;47.964;7.982;2023-02-05T13:04:35;98338.41;;;2.28;99.46
47366;BME280;33105;47.964;7.982;2023-02-05T13:07:47;98317.50;;;2.30;99.93
47366;BME280;33105;47.964;7.982;2023-02-05T13:11:16;98319.00;;;2.32;100.00
47366;BME280;33105;47.964;7.982;2023-02-05T13:14:30;98303.66;;;2.33;100.00
47366;BME280;33105;47.964;7.982;2023-02-05T13:17:37;98308.22;;;2.41;100.00
47366;BME280;33105;47.964;7.982;2023-02-05T13:20:44;98308.44;;;2.15;99.51
47366;BME280;33105;47.964;7.982;2023-02-05T13:24:30;98304.41;;;1.94;99.81
47366;BME280;33105;47.964;7.982;2023-02-05T13:28:05;98293.31;;;1.97;100.00
47366;BME280;33105;47.964;7.982;2023-02-05T13:31:38;98291.09;;;2.17;100.00
47366;BME280;33105;47.964;7.982;2023-02-05T13:34:40;98287.19;;;2.20;100.00
47366;BME280;33105;47.964;7.982;2023-02-05T13:48:29;98274.19;;;2.31;100.00
47366;BME280;33105;47.964;7.982;2023-02-05T13:55:14;98274.84;;;2.42;100.00
47366;BME280;33105;47.964;7.982;2023-02-05T13:58:32;98272.16;;;2.33;99.91
47366;BME280;33105;47.964;7.982;2023-02-05T14:01:49;98272.16;;;2.33;100.00
47366;BME280;33105;47.964;7.982;2023-02-05T14:04:55;98269.97;;;2.37;100.00
47366;BME280;33105;47.964;7.982;2023-02-05T14:07:57;98274.69;;;2.35;100.00
47366;BME280;33105;47.964;7.982;2023-02-05T14:11:03;98270.63;;;2.47;100.00
47366;BME280;33105;47.964;7.982;2023-02-05T14:14:32;98271.97;;;2.43;100.00
47366;BME280;33105;47.964;7.982;2023-02-05T14:20:44;98260.53;;;2.33;100.00
47366;BME280;33105;47.964;7.982;2023-02-05T14:26:49;98265.75;;;2.34;100.00
47366;BME280;33105;47.964;7.982;2023-02-05T14:29:51;98263.91;;;2.27;100.00
47366;BME280;33105;47.964;7.982;2023-02-05T14:33:24;98259.25;;;2.04;100.00
47366;BME280;33105;47.964;7.982;2023-02-05T14:36:30;98264.97;;;2.01;100.00
47366;BME280;33105;47.964;7.982;2023-02-05T14:39:33;98260.59;;;2.17;100.00
47366;BME280;33105;47.964;7.982;2023-02-05T14:42:36;98259.22;;;2.21;100.00
47366;BME280;33105;47.964;7.982;2023-02-05T14:45:46;98257.72;;;2.18;100.00
47366;BME280;33105;47.964;7.982;2023-02-05T14:48:48;98255.53;;;2.14;100.00
47366;BME280;33105;47.964;7.982;2023-02-05T14:51:58;98250.66;;;2.01;100.00
47366;BME280;33105;47.964;7.982;2023-02-05T14:58:23;98268.16;;;2.05;100.00
47366;BME280;33105;47.964;7.982;2023-02-05T15:01:41;98268.34;;;2.12;100.00
47366;BME280;33105;47.964;7.982;2023-02-05T15:04:46;98264.13;;;2.09;100.00
47366;BME280;33105;47.964;7.982;2023-02-05T15:08:11;98270.56;;;1.92;100.00
47366;BME280;33105;47.964;7.982;2023-02-05T15:14:24;98279.66;;;1.91;100.00
47366;BME280;33105;47.964;7.982;2023-02-05T15:17:41;98275.63;;;1.70;100.00
47366;BME280;33105;47.964;7.982;2023-02-05T15:20:47;98285.88;;;1.91;100.00
47366;BME280;33105;47.964;7.982;2023-02-05T15:24:22;98287.75;;;1.91;100.00
47366;BME280;33105;47.964;7.982;2023-02-05T15:27:41;98282.00;;;1.78;100.00
47366;BME280;33105;47.964;7.982;2023-02-05T15:31:00;98281.69;;;1.81;100.00
47366;BME280;33105;47.964;7.982;2023-02-05T15:37:41;98281.16;;;1.77;100.00
47366;BME280;33105;47.964;7.982;2023-02-05T15:40:44;98287.59;;;1.68;100.00
47366;BME280;33105;47.964;7.982;2023-02-05T15:43:59;98287.22;;;1.55;100.00
47366;BME280;33105;47.964;7.982;2023-02-05T15:47:04;98289.94;;;1.63;100.00
47366;BME280;33105;47.964;7.982;2023-02-05T15:50:12;98292.97;;;1.44;100.00
47366;BME280;33105;47.964;7.982;2023-02-05T15:56:38;98300.81;;;0.62;100.00
47366;BME280;33105;47.964;7.982;2023-02-05T15:59:42;98299.72;;;0.39;100.00
47366;BME280;33105;47.964;7.982;2023-02-05T16:02:52;98302.56;;;0.12;100.00
47366;BME280;33105;47.964;7.982;2023-02-05T16:05:54;98301.72;;;0.37;100.00
47366;BME280;33105;47.964;7.982;2023-02-05T16:08:55;98297.94;;;0.56;100.00
47366;BME280;33105;47.964;7.982;2023-02-05T16:12:10;98299.78;;;0.21;100.00
47366;BME280;33105;47.964;7.982;2023-02-05T16:15:12;98307.16;;;0.53;100.00
47366;BME280;33105;47.964;7.982;2023-02-05T16:18:20;98301.66;;;0.63;100.00
47366;BME280;33105;47.964;7.982;2023-02-05T16:21:32;98311.75;;;0.61;100.00
47366;BME280;33105;47.964;7.982;2023-02-05T16:24:39;98300.38;;;0.41;100.00
47366;BME280;33105;47.964;7.982;2023-02-05T16:27:45;98301.66;;;0.63;100.00
47366;BME280;33105;47.964;7.982;2023-02-05T16:30:51;98299.50;;;0.32;100.00
47366;BME280;33105;47.964;7.982;2023-02-05T16:34:11;98297.56;;;0.51;100.00
47366;BME280;33105;47.964;7.982;2023-02-05T16:37:15;98299.03;;;0.71;100.00
47366;BME280;33105;47.964;7.982;2023-02-05T16:40:30;98298.19;;;0.79;100.00
47366;BME280;33105;47.964;7.982;2023-02-05T16:43:36;98302.56;;;0.80;100.00
47366;BME280;33105;47.964;7.982;2023-02-05T16:46:38;98309.63;;;0.73;100.00
47366;BME280;33105;47.964;7.982;2023-02-05T16:49:40;98309.78;;;0.71;100.00
47366;BME280;33105;47.964;7.982;2023-02-05T16:52:41;98318.53;;;0.73;100.00
47366;BME280;33105;47.964;7.982;2023-02-05T16:55:43;98318.47;;;0.65;100.00
47366;BME280;33105;47.964;7.982;2023-02-05T16:58:51;98324.03;;;0.63;100.00
47366;BME280;33105;47.964;7.982;2023-02-05T17:01:53;98320.66;;;0.61;100.00
47366;BME280;33105;47.964;7.982;2023-02-05T17:05:00;98321.69;;;0.68;100.00
47366;BME280;33105;47.964;7.982;2023-02-05T17:08:07;98322.38;;;0.71;100.00
47366;BME280;33105;47.964;7.982;2023-02-05T17:11:38;98329.78;;;0.68;100.00
47366;BME280;33105;47.964;7.982;2023-02-05T17:14:51;98333.63;;;0.66;100.00
47366;BME280;33105;47.964;7.982;2023-02-05T17:18:16;98338.16;;;0.65;100.00
47366;BME280;33105;47.964;7.982;2023-02-05T17:21:24;98331.41;;;0.61;100.00
47366;BME280;33105;47.964;7.982;2023-02-05T17:24:26;98343.53;;;0.65;100.00
47366;BME280;33105;47.964;7.982;2023-02-05T17:27:30;98343.53;;;0.65;100.00
47366;BME280;33105;47.964;7.982;2023-02-05T17:30:33;98342.53;;;0.66;100.00
47366;BME280;33105;47.964;7.982;2023-02-05T17:33:34;98336.56;;;0.47;100.00
47366;BME280;33105;47.964;7.982;2023-02-05T17:36:36;98344.38;;;0.66;100.00
47366;BME280;33105;47.964;7.982;2023-02-05T17:39:37;98334.47;;;0.75;100.00
47366;BME280;33105;47.964;7.982;2023-02-05T17:42:42;98341.69;;;0.66;100.00
47366;BME280;33105;47.964;7.982;2023-02-05T17:45:46;98343.84;;;0.62;100.00
47366;BME280;33105;47.964;7.982;2023-02-05T17:48:47;98333.47;;;0.76;100.00
47366;BME280;33105;47.964;7.982;2023-02-05T17:51:49;98340.59;;;0.85;100.00
47366;BME280;33105;47.964;7.982;2023-02-05T17:54:50;98335.88;;;0.87;100.00
47366;BME280;33105;47.964;7.982;2023-02-05T17:57:52;98340.09;;;0.89;100.00
47366;BME280;33105;47.964;7.982;2023-02-05T18:00:53;98338.91;;;0.84;100.00
47366;BME280;33105;47.964;7.982;2023-02-05T18:03:54;98348.97;;;0.82;100.00